Time;durP1;ratioP1;P1;durP2;ratioP2;P2;SDS_P1;SDS_P2;PMS_P1;PMS_P2;Temp;Humidity;BMP_temperature;BMP_pressure;BME280_temperature;BME280_humidity;BME280_pressure;Samples;Min_cycle;Max_cycle;Signal;HPM_P1;HPM_P2
2023/09/23 00:01:28;;;;;;;1.23;1.00;;;;;;;-145.18;100.00;46644.78;4993923;28;20041;-64
2023/09/23 00:03:54;;;;;;;2.23;1.70;;;;;;;-145.18;100.00;46644.78;5011275;28;20058;-64
2023/09/23 00:06:22;;;;;;;2.43;1.13;;;;;;;-145.18;100.00;46640.88;5012780;28;20034;-64
2023/09/23 00:08:48;;;;;;;2.30;1.67;;;;;;;-145.18;100.00;46642.81;5011038;28;20505;-64
2023/09/23 00:11:15;;;;;;;8.17;2.17;;;;;;;-145.18;100.00;46642.81;5012998;28;20044;-64
2023/09/23 00:13:40;;;;;;;2.97;1.73;;;;;;;-145.18;100.00;46644.78;5012074;28;20037;-64
2023/09/23 00:16:14;;;;;;;3.07;2.17;;;;;;;-145.18;100.00;46646.72;5012705;28;20033;-64
2023/09/23 00:18:40;;;;;;;3.80;2.50;;;;;;;-145.18;100.00;46644.78;5002878;28;20088;-64
2023/09/23 00:21:08;;;;;;;5.07;3.40;;;;;;;-145.18;100.00;46644.78;5012701;28;20034;-64
2023/09/23 00:23:34;;;;;;;6.53;3.60;;;;;;;-145.18;100.00;46644.78;5012123;28;20030;-64
2023/09/23 00:26:01;;;;;;;8.53;4.67;;;;;;;-145.18;100.00;46644.78;5012795;28;20025;-64
2023/09/23 00:28:28;;;;;;;10.03;5.63;;;;;;;-145.18;100.00;46640.88;5007166;28;20054;-64
2023/09/23 00:30:53;;;;;;;8.83;6.23;;;;;;;-145.18;100.00;46642.81;5011185;28;20405;-64
2023/09/23 00:33:19;;;;;;;12.27;6.97;;;;;;;-145.18;100.00;46638.91;5012503;28;20038;-64
2023/09/23 00:35:44;;;;;;;10.57;7.47;;;;;;;-145.18;100.00;46646.72;5012018;28;20063;-65
2023/09/23 00:38:12;;;;;;;14.33;8.27;;;;;;;-145.18;100.00;46644.78;5004159;28;20038;-64
2023/09/23 00:40:38;;;;;;;12.23;8.33;;;;;;;-145.18;100.00;46642.81;5005501;28;20033;-64
2023/09/23 00:43:11;;;;;;;15.60;9.67;;;;;;;-145.18;100.00;46640.88;5012095;28;20092;-64
2023/09/23 00:45:44;;;;;;;16.00;10.47;;;;;;;-145.18;100.00;46644.78;5011924;28;20080;-67
2023/09/23 00:48:09;;;;;;;16.77;11.00;;;;;;;-145.18;100.00;46644.78;5012088;28;20034;-67
2023/09/23 00:50:35;;;;;;;18.57;11.93;;;;;;;-145.18;100.00;46636.94;5012129;28;20461;-67
2023/09/23 00:53:00;;;;;;;19.70;13.00;;;;;;;-145.18;100.00;46642.81;5011821;28;20070;-67
2023/09/23 00:55:30;;;;;;;20.63;13.10;;;;;;;-145.18;100.00;46638.91;5011630;28;20044;-67
2023/09/23 00:58:00;;;;;;;19.63;12.73;;;;;;;-145.18;100.00;46642.81;5004316;28;20057;-67
2023/09/23 01:00:28;;;;;;;26.23;13.67;;;;;;;-145.18;100.00;46642.81;5000299;28;20048;-67
2023/09/23 01:02:57;;;;;;;22.93;13.70;;;;;;;-145.18;100.00;46638.91;5011533;28;20488;-67
2023/09/23 01:05:27;;;;;;;18.97;12.93;;;;;;;-145.18;100.00;46636.94;5010786;28;20397;-67
2023/09/23 01:07:56;;;;;;;24.90;14.57;;;;;;;-145.18;100.00;46638.91;5001849;28;20034;-67
2023/09/23 01:10:23;;;;;;;21.10;13.80;;;;;;;-145.18;100.00;46638.91;5010429;28;20040;-67
2023/09/23 01:12:49;;;;;;;17.70;13.50;;;;;;;-145.18;100.00;46640.88;5010610;28;20030;-67
2023/09/23 01:15:17;;;;;;;20.37;13.90;;;;;;;-145.18;100.00;46635.00;5011318;28;20037;-67
2023/09/23 01:17:53;;;;;;;21.30;13.90;;;;;;;-145.18;100.00;46636.94;5011351;28;20068;-67
2023/09/23 01:20:20;;;;;;;21.97;13.93;;;;;;;-145.18;100.00;46635.00;5011649;28;20041;-67
2023/09/23 01:22:47;;;;;;;21.13;13.93;;;;;;;-145.18;100.00;46642.81;4996216;28;20033;-67
2023/09/23 01:25:16;;;;;;;20.70;13.37;;;;;;;-145.18;100.00;46636.94;4996630;28;20375;-67
2023/09/23 01:27:42;;;;;;;20.13;12.97;;;;;;;-145.18;100.00;46633.06;5003122;28;20044;-67
2023/09/23 01:30:08;;;;;;;21.43;13.40;;;;;;;-145.18;100.00;46635.00;5011037;28;20452;-67
2023/09/23 01:32:48;;;;;;;19.87;13.53;;;;;;;-145.18;100.00;46636.94;5001299;28;20060;-67
2023/09/23 01:35:17;;;;;;;22.83;14.27;;;;;;;-145.18;100.00;46636.94;5011195;28;20099;-67
2023/09/23 01:37:48;;;;;;;19.23;13.23;;;;;;;-145.18;100.00;46635.00;5011066;28;20148;-67
2023/09/23 01:40:17;;;;;;;22.63;14.50;;;;;;;-145.18;100.00;46633.06;5011769;28;20030;-67
2023/09/23 01:42:44;;;;;;;22.33;14.07;;;;;;;-145.18;100.00;46629.13;5006993;28;20089;-67
2023/09/23 01:45:13;;;;;;;21.03;13.50;;;;;;;-145.18;100.00;46633.06;5013835;28;20034;-67
2023/09/23 01:47:42;;;;;;;19.90;12.97;;;;;;;-145.18;100.00;46633.06;5009809;28;20041;-67
2023/09/23 01:50:13;;;;;;;20.83;12.20;;;;;;;-145.18;100.00;46660.41;5013312;28;20482;-66
2023/09/23 01:52:40;;;;;;;18.63;11.40;;;;;;;-145.18;100.00;46636.94;5011521;28;20367;-67
2023/09/23 01:55:07;;;;;;;14.87;10.30;;;;;;;-145.18;100.00;46633.06;5014598;28;20026;-64
2023/09/23 01:57:35;;;;;;;23.83;10.20;;;;;;;-145.18;100.00;46633.06;5010865;28;20093;-64
2023/09/23 02:00:03;;;;;;;15.37;9.60;;;;;;;-145.18;100.00;46633.06;5009175;28;20061;-64
2023/09/23 02:02:28;;;;;;;18.97;9.27;;;;;;;-145.18;100.00;46631.09;5015106;28;20109;-64
2023/09/23 02:04:54;;;;;;;14.23;7.93;;;;;;;-145.18;100.00;46627.19;5014814;28;20108;-64
2023/09/23 02:07:19;;;;;;;16.87;8.93;;;;;;;-145.18;100.00;46631.09;5012781;28;20131;-64
2023/09/23 02:09:45;;;;;;;15.70;9.03;;;;;;;-145.18;100.00;46627.19;5015331;28;20113;-64
2023/09/23 02:12:12;;;;;;;13.70;8.03;;;;;;;-145.18;100.00;46635.00;5013732;28;20046;-64
2023/09/23 02:14:39;;;;;;;20.73;8.93;;;;;;;-145.18;100.00;46629.13;5011915;28;20062;-64
2023/09/23 02:17:05;;;;;;;13.73;7.93;;;;;;;-145.18;100.00;46629.13;5012668;28;20088;-64
2023/09/23 02:19:30;;;;;;;18.10;8.20;;;;;;;-145.18;100.00;46635.00;5013169;28;20045;-64
2023/09/23 02:21:56;;;;;;;15.00;7.90;;;;;;;-145.18;100.00;46629.13;5013723;28;20034;-64
2023/09/23 02:24:22;;;;;;;14.23;7.70;;;;;;;-145.18;100.00;46629.13;5014774;28;20048;-64
2023/09/23 02:26:48;;;;;;;14.50;7.17;;;;;;;-145.18;100.00;46627.19;5009622;28;20148;-64
2023/09/23 02:29:17;;;;;;;16.30;8.47;;;;;;;-145.18;100.00;46633.06;5011419;28;20501;-64
2023/09/23 02:31:47;;;;;;;13.93;8.37;;;;;;;-145.18;100.00;46633.06;5001831;28;20042;-64
2023/09/23 02:34:16;;;;;;;15.67;8.03;;;;;;;-145.18;100.00;46660.41;5013267;28;20448;-64
2023/09/23 02:36:43;;;;;;;13.30;7.57;;;;;;;-145.18;100.00;46660.41;5014275;28;20030;-64
2023/09/23 02:39:14;;;;;;;13.07;7.53;;;;;;;-145.18;100.00;46629.13;5014423;28;20040;-64
2023/09/23 02:41:40;;;;;;;15.50;8.20;;;;;;;-145.18;100.00;46629.13;5014699;28;20034;-64
2023/09/23 02:44:05;;;;;;;12.57;7.37;;;;;;;-145.18;100.00;46629.13;5012751;28;20552;-64
2023/09/23 02:46:30;;;;;;;14.47;8.03;;;;;;;-145.18;100.00;46629.13;5013641;28;20132;-64
2023/09/23 02:48:56;;;;;;;14.20;8.27;;;;;;;-145.18;100.00;46660.41;5012222;28;20037;-64
2023/09/23 02:51:21;;;;;;;12.63;7.60;;;;;;;-145.18;100.00;46660.41;5014195;28;20084;-64
2023/09/23 02:53:47;;;;;;;14.30;7.97;;;;;;;-145.18;100.00;46631.09;5013759;28;20095;-64
2023/09/23 02:56:12;;;;;;;12.90;7.80;;;;;;;-145.18;100.00;46627.19;5002771;28;20068;-64
2023/09/23 02:58:38;;;;;;;14.67;7.10;;;;;;;-145.18;100.00;46627.19;5013899;28;20049;-63
2023/09/23 03:01:05;;;;;;;15.20;7.87;;;;;;;-145.18;100.00;46631.09;5013751;28;20040;-64
2023/09/23 03:03:33;;;;;;;19.50;7.90;;;;;;;-145.18;100.00;46627.19;5005951;28;20121;-64
2023/09/23 03:06:02;;;;;;;15.90;7.60;;;;;;;-145.18;100.00;46627.19;5010659;28;20092;-67
2023/09/23 03:08:29;;;;;;;14.63;7.23;;;;;;;-145.18;100.00;46636.94;5010433;28;20057;-67
2023/09/23 03:10:56;;;;;;;15.50;7.47;;;;;;;-145.18;100.00;46633.06;5012111;28;20049;-67
2023/09/23 03:13:23;;;;;;;14.50;7.57;;;;;;;-145.18;100.00;46631.09;5012504;28;20033;-67
2023/09/23 03:15:58;;;;;;;13.67;7.27;;;;;;;-145.18;100.00;46627.19;5010390;28;20474;-67
2023/09/23 03:18:33;;;;;;;17.07;7.53;;;;;;;-145.18;100.00;46629.13;5005632;28;20056;-67
2023/09/23 03:21:08;;;;;;;12.30;7.57;;;;;;;-145.18;100.00;46633.06;5011870;28;20114;-67
2023/09/23 03:23:44;;;;;;;14.05;7.03;;;;;;;-145.18;100.00;46631.09;5013614;28;20450;-67
2023/09/23 03:26:09;;;;;;;19.60;8.48;;;;;;;-145.18;100.00;46631.09;4996261;28;20034;-67
2023/09/23 03:28:42;;;;;;;15.87;8.30;;;;;;;-145.18;100.00;46629.13;5000558;28;20449;-67
2023/09/23 03:31:08;;;;;;;15.47;6.67;;;;;;;-145.18;100.00;46631.09;5001207;28;20026;-67
2023/09/23 03:33:34;;;;;;;12.17;7.37;;;;;;;-145.18;100.00;46633.06;5013410;28;20036;-67
2023/09/23 03:35:59;;;;;;;16.17;7.93;;;;;;;-145.18;100.00;46633.06;5012751;28;20026;-67
2023/09/23 03:38:25;;;;;;;18.87;7.50;;;;;;;-145.18;100.00;46631.09;5009217;28;20112;-67
2023/09/23 03:40:52;;;;;;;11.50;6.57;;;;;;;-145.18;100.00;46631.09;5013308;28;20112;-67
2023/09/23 03:43:18;;;;;;;16.73;7.00;;;;;;;-145.18;100.00;46633.06;5012063;28;20030;-67
2023/09/23 03:45:43;;;;;;;13.57;6.63;;;;;;;-145.18;100.00;46631.09;5012572;28;20033;-67
2023/09/23 03:48:10;;;;;;;15.30;6.87;;;;;;;-145.18;100.00;46633.06;5012996;28;20482;-67
2023/09/23 03:50:35;;;;;;;10.27;6.47;;;;;;;-145.18;100.00;46636.94;5011487;28;20025;-67
2023/09/23 03:53:01;;;;;;;14.13;7.10;;;;;;;-145.18;100.00;46631.09;5013047;28;20050;-67
2023/09/23 03:55:26;;;;;;;17.70;7.20;;;;;;;-145.18;100.00;46633.06;5009519;28;20062;-67
2023/09/23 03:57:53;;;;;;;17.03;7.13;;;;;;;-145.18;100.00;46635.00;5007087;28;20084;-67
2023/09/23 04:00:20;;;;;;;11.97;6.47;;;;;;;-145.18;100.00;46631.09;5009400;28;20025;-67
2023/09/23 04:02:49;;;;;;;13.23;7.40;;;;;;;-145.18;100.00;46635.00;5007975;28;20026;-67
2023/09/23 04:05:15;;;;;;;12.87;6.30;;;;;;;-145.18;100.00;46629.13;5008603;28;20174;-67
2023/09/23 04:07:50;;;;;;;12.57;6.20;;;;;;;-145.18;100.00;46633.06;5008591;28;20561;-67
2023/09/23 04:10:22;;;;;;;11.10;6.20;;;;;;;-145.18;100.00;46633.06;5010492;28;20466;-67
2023/09/23 04:12:48;;;;;;;12.37;6.87;;;;;;;-145.18;100.00;46629.13;5012828;28;20044;-67
2023/09/23 04:15:13;;;;;;;10.90;6.70;;;;;;;-145.18;100.00;46629.13;5009085;28;20037;-67
2023/09/23 04:17:38;;;;;;;12.47;6.27;;;;;;;-145.18;100.00;46633.06;5010970;28;20148;-67
2023/09/23 04:20:11;;;;;;;8.43;5.63;;;;;;;-145.18;100.00;46633.06;5009207;28;20133;-67
2023/09/23 04:22:41;;;;;;;9.73;5.83;;;;;;;-145.18;100.00;46635.00;5007441;28;21919;-67
2023/09/23 04:25:08;;;;;;;15.17;6.80;;;;;;;-145.18;100.00;46631.09;5006090;28;20030;-66
2023/09/23 04:27:34;;;;;;;14.13;5.57;;;;;;;-145.18;100.00;46629.13;5011137;28;20053;-67
2023/09/23 04:30:01;;;;;;;14.67;5.60;;;;;;;-145.18;100.00;46627.19;5008987;28;20105;-67
2023/09/23 04:32:27;;;;;;;15.77;5.97;;;;;;;-145.18;100.00;46631.09;4996626;28;20030;-67
2023/09/23 04:34:52;;;;;;;10.90;5.43;;;;;;;-145.18;100.00;46629.13;5008574;28;20735;-67
2023/09/23 04:37:18;;;;;;;13.10;5.27;;;;;;;-145.18;100.00;46633.06;5012095;28;20037;-67
2023/09/23 04:39:43;;;;;;;11.77;4.83;;;;;;;-145.18;100.00;46631.09;5011903;28;20025;-67
2023/09/23 04:42:11;;;;;;;7.47;5.10;;;;;;;-145.18;100.00;46629.13;5005325;28;20119;-67
2023/09/23 04:44:37;;;;;;;16.77;6.10;;;;;;;-145.18;100.00;46631.09;5005338;28;20022;-66
2023/09/23 04:47:02;;;;;;;15.50;5.17;;;;;;;-145.18;100.00;46629.13;5012231;28;20541;-67
2023/09/23 04:49:27;;;;;;;9.07;5.37;;;;;;;-145.18;100.00;46631.09;5011781;28;20029;-67
2023/09/23 04:51:53;;;;;;;10.97;5.00;;;;;;;-145.18;100.00;46631.09;5012400;28;20039;-67
2023/09/23 04:54:18;;;;;;;11.70;5.37;;;;;;;-145.18;100.00;46629.13;5011457;28;20482;-67
2023/09/23 04:56:43;;;;;;;10.90;4.97;;;;;;;-145.18;100.00;46629.13;5007529;28;20091;-67
2023/09/23 04:59:09;;;;;;;13.43;6.10;;;;;;;-145.18;100.00;46629.13;5001823;28;20548;-67
2023/09/23 05:01:34;;;;;;;14.23;5.83;;;;;;;-145.18;100.00;46631.09;5002928;28;20029;-67
2023/09/23 05:04:02;;;;;;;10.40;5.47;;;;;;;-145.18;100.00;46629.13;5005253;28;20490;-67
2023/09/23 05:06:28;;;;;;;12.07;5.07;;;;;;;-145.18;100.00;46631.09;5011927;28;20089;-67
2023/09/23 05:08:55;;;;;;;7.97;5.00;;;;;;;-145.18;100.00;46633.06;5005951;28;20410;-66
2023/09/23 05:11:20;;;;;;;14.30;5.33;;;;;;;-145.18;100.00;46629.13;5009858;28;20022;-67
2023/09/23 05:13:46;;;;;;;10.73;5.47;;;;;;;-145.18;100.00;46629.13;5004766;28;20513;-67
2023/09/23 05:16:11;;;;;;;10.23;4.93;;;;;;;-145.18;100.00;46633.06;5010590;28;20065;-66
2023/09/23 05:18:37;;;;;;;9.80;4.97;;;;;;;-145.18;100.00;46631.09;5013041;28;20108;-67
2023/09/23 05:21:03;;;;;;;9.73;5.00;;;;;;;-145.18;100.00;46629.13;5000407;28;20065;-66
2023/09/23 05:23:28;;;;;;;15.13;4.87;;;;;;;-145.18;100.00;46631.09;4999494;28;20058;-66
2023/09/23 05:25:57;;;;;;;14.37;5.87;;;;;;;-145.18;100.00;46627.19;5013751;28;20190;-66
2023/09/23 05:28:23;;;;;;;10.47;5.33;;;;;;;-145.18;100.00;46633.06;5010007;28;20050;-67
2023/09/23 05:30:49;;;;;;;10.77;5.27;;;;;;;-145.18;100.00;46631.09;5003409;28;20042;-66
2023/09/23 05:33:15;;;;;;;15.43;5.63;;;;;;;-145.18;100.00;46629.13;5012899;28;20103;-67
2023/09/23 05:35:40;;;;;;;11.20;5.23;;;;;;;-145.18;100.00;46631.09;5015226;28;20463;-66
2023/09/23 05:38:07;;;;;;;12.60;5.03;;;;;;;-145.18;100.00;46629.13;5008737;28;20084;-67
2023/09/23 05:40:36;;;;;;;16.97;5.73;;;;;;;-145.18;100.00;46627.19;5008683;28;20041;-67
2023/09/23 05:43:03;;;;;;;13.77;5.60;;;;;;;-145.18;100.00;46623.28;5012588;28;20091;-67
2023/09/23 05:45:29;;;;;;;13.13;5.20;;;;;;;-145.18;100.00;46629.13;5009222;28;20025;-66
2023/09/23 05:47:55;;;;;;;11.57;5.03;;;;;;;-145.18;100.00;46627.19;5004987;28;20038;-67
2023/09/23 05:50:22;;;;;;;13.70;5.97;;;;;;;-145.18;100.00;46627.19;5009592;28;20024;-67
2023/09/23 05:52:48;;;;;;;11.77;6.10;;;;;;;-145.18;100.00;46627.19;5014780;28;20022;-67
2023/09/23 05:55:14;;;;;;;12.27;5.43;;;;;;;-145.18;100.00;46629.13;5011630;28;20049;-67
2023/09/23 05:57:40;;;;;;;15.00;5.53;;;;;;;-145.18;100.00;46627.19;5014981;28;20405;-67
2023/09/23 06:00:11;;;;;;;10.53;5.87;;;;;;;-145.18;100.00;46625.22;5010986;28;20036;-67
2023/09/23 06:02:37;;;;;;;12.17;6.00;;;;;;;-145.18;100.00;46629.13;5009470;28;20713;-67
2023/09/23 06:05:03;;;;;;;12.00;5.50;;;;;;;-145.18;100.00;46627.19;5011979;28;20109;-67
2023/09/23 06:07:29;;;;;;;14.37;5.47;;;;;;;-145.18;100.00;46627.19;5013817;28;20053;-67
2023/09/23 06:09:55;;;;;;;10.80;5.57;;;;;;;-145.18;100.00;46631.09;5015071;28;20389;-67
2023/09/23 06:12:21;;;;;;;9.37;5.73;;;;;;;-145.18;100.00;46631.09;5014476;28;20030;-67
2023/09/23 06:14:46;;;;;;;9.33;5.13;;;;;;;-145.18;100.00;46629.13;5010187;28;20033;-67
2023/09/23 06:17:12;;;;;;;14.47;5.53;;;;;;;-145.18;100.00;46623.28;5015162;28;20052;-67
2023/09/23 06:19:38;;;;;;;13.70;5.07;;;;;;;-145.18;100.00;46633.06;5011159;28;20046;-66
2023/09/23 06:22:03;;;;;;;11.17;4.73;;;;;;;-145.18;100.00;46627.19;5012756;28;20405;-67
2023/09/23 06:24:28;;;;;;;13.10;5.33;;;;;;;-145.18;100.00;46629.13;5005161;28;20061;-67
2023/09/23 06:26:54;;;;;;;10.80;5.03;;;;;;;-145.18;100.00;46627.19;5007295;28;20030;-67
2023/09/23 06:29:20;;;;;;;10.03;5.00;;;;;;;-145.18;100.00;46629.13;5013524;28;20144;-67
2023/09/23 06:31:45;;;;;;;12.37;4.63;;;;;;;-145.18;100.00;46627.19;5004483;28;20037;-67
2023/09/23 06:34:10;;;;;;;9.47;5.27;;;;;;;-145.18;100.00;46627.19;5013132;28;20030;-67
2023/09/23 06:36:36;;;;;;;19.37;5.90;;;;;;;-145.18;100.00;46625.22;5014276;28;20032;-65
2023/09/23 06:39:01;;;;;;;14.60;5.80;;;;;;;-145.18;100.00;46631.09;5014455;28;20030;-65
2023/09/23 06:41:26;;;;;;;12.97;4.63;;;;;;;-145.18;100.00;46627.19;5013741;28;20532;-65
2023/09/23 06:43:52;;;;;;;11.93;5.33;;;;;;;-145.18;100.00;46627.19;5003169;28;20453;-65
2023/09/23 06:46:17;;;;;;;8.40;4.47;;;;;;;-145.18;100.00;46629.13;5014434;28;20141;-65
2023/09/23 06:48:43;;;;;;;9.90;5.20;;;;;;;-145.18;100.00;46627.19;5014333;28;20055;-65
2023/09/23 06:51:09;;;;;;;12.10;5.23;;;;;;;-145.18;100.00;46627.19;5007439;28;20125;-65
2023/09/23 06:53:34;;;;;;;11.80;5.13;;;;;;;-145.18;100.00;46625.22;5012915;28;20030;-65
2023/09/23 06:56:00;;;;;;;16.07;4.73;;;;;;;-145.18;100.00;46623.28;5014015;28;20450;-65
2023/09/23 06:58:25;;;;;;;14.70;5.90;;;;;;;-145.18;100.00;46625.22;5013667;28;20025;-65
2023/09/23 07:00:51;;;;;;;9.87;5.00;;;;;;;-145.18;100.00;46625.22;5010058;28;20041;-65
2023/09/23 07:03:16;;;;;;;12.13;4.73;;;;;;;-145.18;100.00;46619.38;5013731;28;20022;-65
2023/09/23 07:05:43;;;;;;;8.30;4.70;;;;;;;-145.18;100.00;46627.19;5014083;28;20033;-65
2023/09/23 07:08:09;;;;;;;9.43;4.77;;;;;;;-145.18;100.00;46619.38;5013779;28;20453;-65
2023/09/23 07:10:36;;;;;;;10.70;4.83;;;;;;;-145.18;100.00;46621.31;5013353;28;20096;-65
2023/09/23 07:13:03;;;;;;;8.33;4.27;;;;;;;-145.18;100.00;46619.38;5012082;28;20100;-65
2023/09/23 07:15:39;;;;;;;9.57;4.73;;;;;;;-145.18;100.00;46623.28;5007647;28;20542;-65
2023/09/23 07:18:05;;;;;;;11.60;4.53;;;;;;;-145.18;100.00;46623.28;5002429;28;20523;-65
2023/09/23 07:20:31;;;;;;;13.57;4.83;;;;;;;-145.18;100.00;46623.28;5009890;28;20049;-65
2023/09/23 07:22:57;;;;;;;11.77;5.00;;;;;;;-145.18;100.00;46625.22;5013052;28;20021;-65
2023/09/23 07:25:23;;;;;;;19.70;4.90;;;;;;;-145.18;100.00;46623.28;5011161;28;20075;-65
2023/09/23 07:27:49;;;;;;;9.13;4.43;;;;;;;-145.18;100.00;46621.31;5013441;28;20433;-65
2023/09/23 07:30:15;;;;;;;10.63;5.17;;;;;;;-145.18;100.00;46625.22;5008530;28;20038;-65
2023/09/23 07:32:41;;;;;;;8.73;5.07;;;;;;;-145.18;100.00;46623.28;5006606;28;20069;-65
2023/09/23 07:35:07;;;;;;;8.90;4.27;;;;;;;-145.18;100.00;46621.31;5009601;28;20038;-65
2023/09/23 07:37:33;;;;;;;13.50;4.80;;;;;;;-145.18;100.00;46623.28;5010182;28;20489;-64
2023/09/23 07:39:58;;;;;;;10.63;4.67;;;;;;;-145.18;100.00;46625.22;5012314;28;20053;-65
2023/09/23 07:42:24;;;;;;;10.27;4.73;;;;;;;-145.18;100.00;46627.19;5012910;28;20120;-65
2023/09/23 07:44:49;;;;;;;13.70;4.47;;;;;;;-145.18;100.00;46627.19;5011871;28;20022;-65
2023/09/23 07:47:14;;;;;;;8.83;5.23;;;;;;;-145.18;100.00;46627.19;5012382;28;20029;-65
2023/09/23 07:49:40;;;;;;;8.47;4.20;;;;;;;-145.18;100.00;46629.13;5012136;28;20539;-65
2023/09/23 07:52:05;;;;;;;9.60;3.77;;;;;;;-145.18;100.00;46629.13;5007071;28;20072;-65
2023/09/23 07:54:30;;;;;;;9.30;4.57;;;;;;;-145.18;100.00;46629.13;5011391;28;20033;-65
2023/09/23 07:56:56;;;;;;;10.57;4.20;;;;;;;-145.18;100.00;46635.00;5012661;28;20029;-65
2023/09/23 07:59:21;;;;;;;16.83;4.80;;;;;;;-145.18;100.00;46633.06;5001946;28;20100;-65
2023/09/23 08:01:47;;;;;;;9.20;3.93;;;;;;;-145.18;100.00;46636.94;5006902;28;20041;-65
2023/09/23 08:04:12;;;;;;;11.37;4.40;;;;;;;-145.18;100.00;46642.81;5011704;28;20033;-65
2023/09/23 08:06:38;;;;;;;10.60;3.63;;;;;;;-145.18;100.00;46646.72;5011535;28;20038;-65
2023/09/23 08:09:05;;;;;;;8.37;3.77;;;;;;;-145.18;100.00;46646.72;5004582;28;20659;-64
2023/09/23 08:11:32;;;;;;;12.10;3.77;;;;;;;-145.18;100.00;46646.72;5010887;28;20486;-65
2023/09/23 08:13:57;;;;;;;11.53;3.73;;;;;;;-145.18;100.00;46646.72;5006899;28;20394;-65
2023/09/23 08:16:23;;;;;;;7.23;3.47;;;;;;;-145.18;100.00;46646.72;5012060;28;20040;-65
2023/09/23 08:18:49;;;;;;;7.73;3.47;;;;;;;-145.18;100.00;46646.72;5012572;28;20030;-65
2023/09/23 08:21:15;;;;;;;7.27;3.00;;;;;;;-145.18;100.00;46650.63;5010141;28;20127;-65
2023/09/23 08:23:40;;;;;;;10.47;3.57;;;;;;;-145.18;100.00;46650.63;5012607;28;20040;-65
2023/09/23 08:26:06;;;;;;;8.53;2.90;;;;;;;-145.18;100.00;46648.69;5012296;28;20029;-65
2023/09/23 08:28:31;;;;;;;7.17;3.47;;;;;;;-145.18;100.00;46648.69;5010957;28;20077;-65
2023/09/23 08:30:56;;;;;;;7.93;3.10;;;;;;;-145.18;100.00;46648.69;5008745;28;20413;-65
2023/09/23 08:33:22;;;;;;;8.40;3.80;;;;;;;-145.18;100.00;46646.72;4999566;28;20065;-65
2023/09/23 08:35:48;;;;;;;10.03;4.03;;;;;;;-145.18;100.00;46648.69;5011987;28;20370;-65
2023/09/23 08:38:15;;;;;;;7.40;3.20;;;;;;;-145.18;100.00;46650.63;5005278;28;20113;-65
2023/09/23 08:40:43;;;;;;;10.57;2.90;;;;;;;-145.18;100.00;46654.53;5007036;28;20037;-65
2023/09/23 08:43:08;;;;;;;7.50;3.00;;;;;;;-145.18;100.00;46654.53;5012373;28;20476;-65
2023/09/23 08:45:45;;;;;;;11.10;3.20;;;;;;;-145.18;100.00;46650.63;5011875;28;20100;-65
2023/09/23 08:48:13;;;;;;;7.70;3.20;;;;;;;-145.18;100.00;46662.34;5011931;28;20116;-65
2023/09/23 08:50:46;;;;;;;8.40;3.07;;;;;;;-145.18;100.00;46660.41;5010322;28;20036;-65
2023/09/23 08:53:14;;;;;;;11.07;3.10;;;;;;;-145.18;100.00;46662.34;5006417;28;20041;-65
2023/09/23 08:55:39;;;;;;;6.43;3.00;;;;;;;-145.18;100.00;46660.41;5009147;28;20022;-65
2023/09/23 08:58:05;;;;;;;8.63;3.30;;;;;;;-145.18;100.00;46662.34;5011560;28;20041;-65
2023/09/23 09:00:31;;;;;;;4.33;2.63;;;;;;;-145.18;100.00;46666.25;5003198;28;20022;-65
2023/09/23 09:02:57;;;;;;;8.40;2.77;;;;;;;-145.18;100.00;46666.25;5008863;28;20038;-65
2023/09/23 09:05:23;;;;;;;7.50;3.07;;;;;;;-145.18;100.00;46666.25;5008119;28;20116;-65
2023/09/23 09:07:49;;;;;;;5.90;2.87;;;;;;;-145.18;100.00;46662.34;5005921;28;20036;-65
2023/09/23 09:10:15;;;;;;;6.40;2.70;;;;;;;-145.18;100.00;46666.25;5010840;28;20425;-65
2023/09/23 09:12:40;;;;;;;11.77;3.30;;;;;;;-145.18;100.00;46666.25;5006397;28;20030;-65
2023/09/23 09:15:06;;;;;;;10.67;3.10;;;;;;;-145.18;100.00;46660.41;5011537;28;20088;-65
2023/09/23 09:17:33;;;;;;;6.43;2.90;;;;;;;-145.18;100.00;46664.31;5012048;28;20071;-65
2023/09/23 09:20:09;;;;;;;7.67;2.77;;;;;;;-145.18;100.00;46666.25;5011178;28;20034;-65
2023/09/23 09:22:36;;;;;;;7.33;3.00;;;;;;;-145.18;100.00;46668.22;5011158;28;20505;-65
2023/09/23 09:25:02;;;;;;;13.70;3.00;;;;;;;-145.18;100.00;46666.25;5011678;28;20022;-65
2023/09/23 09:27:28;;;;;;;8.53;3.00;;;;;;;-145.18;100.00;46672.13;5010267;28;20034;-65
2023/09/23 09:29:54;;;;;;;8.53;3.17;;;;;;;-145.18;100.00;46674.06;5005141;28;20054;-64
2023/09/23 09:32:29;;;;;;;6.30;2.90;;;;;;;-145.18;100.00;46670.16;5003519;28;20393;-65
2023/09/23 09:34:59;;;;;;;7.97;3.65;;;;;;;-145.18;100.00;46677.97;5011685;28;20037;-65
2023/09/23 09:37:27;;;;;;;9.83;3.27;;;;;;;-145.18;100.00;46679.94;5011909;28;20037;-65
2023/09/23 09:39:57;;;;;;;6.57;2.83;;;;;;;-145.18;100.00;46677.97;5002673;28;20472;-65
2023/09/23 09:42:30;;;;;;;7.83;2.87;;;;;;;-145.18;100.00;46679.94;5011487;28;20041;-65
2023/09/23 09:44:59;;;;;;;13.47;3.10;;;;;;;-145.18;100.00;46677.97;5003760;28;20048;-65
2023/09/23 09:47:27;;;;;;;5.27;2.50;;;;;;;-145.18;100.00;46683.84;5011499;28;20080;-65
2023/09/23 09:49:54;;;;;;;8.87;2.60;;;;;;;-145.18;100.00;46689.69;5000646;28;20030;-65
2023/09/23 09:52:26;;;;;;;9.80;3.23;;;;;;;-145.18;100.00;46689.69;5008399;28;20101;-64
2023/09/23 09:54:54;;;;;;;6.30;2.87;;;;;;;-145.18;100.00;46689.69;4999669;28;20034;-65
2023/09/23 09:57:25;;;;;;;8.03;2.53;;;;;;;-145.18;100.00;46689.69;5009377;28;20034;-65
2023/09/23 09:59:53;;;;;;;6.67;2.87;;;;;;;-145.18;100.00;46689.69;5007594;28;20041;-65
2023/09/23 10:02:18;;;;;;;6.17;2.77;;;;;;;-145.18;100.00;46685.78;5009554;28;20034;-65
2023/09/23 10:04:49;;;;;;;4.53;2.40;;;;;;;-145.18;100.00;46683.84;5012367;28;20041;-65
2023/09/23 10:07:16;;;;;;;5.30;2.53;;;;;;;-145.18;100.00;46683.84;5009561;28;20048;-68
2023/09/23 10:09:55;;;;;;;7.33;2.73;;;;;;;-145.18;100.00;46677.97;5010009;28;20045;-67
2023/09/23 10:12:31;;;;;;;6.97;3.17;;;;;;;-145.18;100.00;46679.94;5014875;28;20049;-67
2023/09/23 10:14:56;;;;;;;;;;;;;;;-145.18;100.00;46683.84;5014890;28;20037;-67
2023/09/23 10:17:33;;;;;;;6.97;2.42;;;;;;;-145.18;100.00;46683.84;5006219;28;20017;-67
2023/09/23 10:19:58;;;;;;;6.53;2.43;;;;;;;-145.18;100.00;46674.06;5004507;28;20061;-67
2023/09/23 10:22:28;;;;;;;5.03;2.37;;;;;;;-145.18;100.00;46677.97;5013508;28;20074;-67
2023/09/23 10:25:11;;;;;;;6.67;2.30;;;;;;;-145.18;100.00;46679.94;5012414;28;20478;-67
2023/09/23 10:27:38;;;;;;;7.47;2.30;;;;;;;-145.18;100.00;46679.94;5013987;28;20038;-67
2023/09/23 10:30:05;;;;;;;8.23;2.70;;;;;;;-145.18;100.00;46677.97;5012561;28;20022;-67
2023/09/23 10:32:31;;;;;;;5.27;2.27;;;;;;;-145.18;100.00;46676.03;5005977;28;20038;-67
2023/09/23 10:34:56;;;;;;;8.90;2.87;;;;;;;-145.18;100.00;46670.16;5014123;28;20030;-66
2023/09/23 10:37:32;;;;;;;2.90;2.13;;;;;;;-145.18;100.00;46668.22;5013301;28;20037;-67
2023/09/23 10:40:11;;;;;;;4.57;2.50;;;;;;;-145.18;100.00;46666.25;5013460;28;20100;-67
2023/09/23 10:42:38;;;;;;;6.27;2.80;;;;;;;-145.18;100.00;46666.25;5010497;28;20049;-66
2023/09/23 10:45:04;;;;;;;8.33;2.73;;;;;;;-145.18;100.00;46662.34;5013610;28;20038;-67
2023/09/23 10:47:29;;;;;;;4.00;2.63;;;;;;;-145.18;100.00;46664.31;5014099;28;20060;-67
2023/09/23 10:49:54;;;;;;;9.57;3.20;;;;;;;-145.18;100.00;46662.34;5013163;28;20073;-67
2023/09/23 10:52:21;;;;;;;8.70;3.40;;;;;;;-145.18;100.00;46662.34;5011480;28;20026;-67
2023/09/23 10:54:51;;;;;;;7.30;2.80;;;;;;;-145.18;100.00;46656.50;5008871;28;20022;-67
2023/09/23 10:57:16;;;;;;;7.50;3.23;;;;;;;-145.18;100.00;46654.53;5011975;28;20072;-67
2023/09/23 10:59:43;;;;;;;7.07;3.17;;;;;;;-145.18;100.00;46652.59;5013560;28;20021;-68
2023/09/23 11:02:11;;;;;;;16.00;3.93;;;;;;;-145.18;100.00;46656.50;5013410;28;20065;-68
2023/09/23 11:04:36;;;;;;;7.73;3.67;;;;;;;-145.18;100.00;46660.41;5014312;28;20470;-68